Time,TemperatureF,DewpointF,PressureIn,WindDirection,WindDirectionDegrees,WindSpeedMPH,WindSpeedGustMPH,Humidity,HourlyPrecipIn,Conditions,Clouds,dailyrainin,SoftwareType,DateUTC
2013-07-20 00:02:00,68.9,68.5,29.15,NE,45,0.0,1.0,99,0.00,,,0.01,meteohub,2013-07-20 10:02:00,
2013-07-20 00:07:00,68.9,68.5,29.15,NE,45,0.0,1.0,99,0.00,,,0.00,meteohub,2013-07-20 10:07:00,
2013-07-20 00:12:00,68.9,68.5,29.15,NE,45,0.0,1.0,99,0.00,,,0.00,meteohub,2013-07-20 10:12:00,
2013-07-20 00:17:00,68.9,68.5,29.15,NE,45,0.0,2.0,99,0.00,,,0.00,meteohub,2013-07-20 10:17:00,
2013-07-20 00:22:00,68.9,68.5,29.15,NE,45,0.0,2.0,99,0.00,,,0.00,meteohub,2013-07-20 10:22:00,
2013-07-20 00:27:00,68.9,68.5,29.15,NE,45,1.0,2.0,99,0.00,,,0.00,meteohub,2013-07-20 10:27:00,
2013-07-20 00:32:00,68.9,68.5,29.14,NE,45,0.0,1.0,99,0.00,,,0.00,meteohub,2013-07-20 10:32:00,
2013-07-20 00:37:00,68.9,68.5,29.15,NE,45,0.0,1.0,99,0.00,,,0.00,meteohub,2013-07-20 10:37:00,
2013-07-20 00:42:00,68.9,68.5,29.15,NE,45,0.0,1.0,99,0.00,,,0.00,meteohub,2013-07-20 10:42:00,
2013-07-20 00:47:00,68.9,68.5,29.14,NE,45,0.0,0.0,99,0.00,,,0.00,meteohub,2013-07-20 10:47:00,
2013-07-20 00:52:00,68.9,68.5,29.14,NE,45,0.0,0.0,99,0.00,,,0.00,meteohub,2013-07-20 10:52:00,
2013-07-20 00:57:00,68.7,68.4,29.14,NE,45,0.0,0.0,99,0.00,,,0.00,meteohub,2013-07-20 10:57:00,
2013-07-20 01:02:00,68.7,68.4,29.14,NE,45,0.0,0.0,99,0.00,,,0.00,meteohub,2013-07-20 11:02:00,
2013-07-20 01:07:00,68.7,68.4,29.14,NE,45,0.0,0.0,99,0.00,,,0.00,meteohub,2013-07-20 11:07:00,
2013-07-20 01:12:00,68.7,68.4,29.14,NE,45,0.0,0.0,99,0.00,,,0.00,meteohub,2013-07-20 11:12:00,
2013-07-20 01:17:00,68.7,68.4,29.14,NE,45,0.0,0.0,99,0.00,,,0.00,meteohub,2013-07-20 11:17:00,
2013-07-20 01:22:00,68.7,68.4,29.14,NE,45,0.0,0.0,99,0.00,,,0.00,meteohub,2013-07-20 11:22:00,
2013-07-20 01:27:00,68.7,68.4,29.13,NE,45,0.0,0.0,99,0.00,,,0.00,meteohub,2013-07-20 11:27:00,
2013-07-20 01:32:00,68.9,68.5,29.13,NE,45,0.0,1.0,99,0.00,,,0.00,meteohub,2013-07-20 11:32:00,
2013-07-20 01:37:00,68.9,68.5,29.13,NE,45,0.0,2.0,99,0.00,,,0.00,meteohub,2013-07-20 11:37:00,
2013-07-20 01:42:00,68.9,68.5,29.13,NE,45,0.0,2.0,99,0.00,,,0.00,meteohub,2013-07-20 11:42:00,
2013-07-20 01:47:00,68.7,68.4,29.13,East,90,1.0,2.0,99,0.00,,,0.00,meteohub,2013-07-20 11:47:00,
2013-07-20 01:52:00,68.7,68.4,29.12,NE,45,0.0,2.0,99,0.00,,,0.00,meteohub,2013-07-20 11:52:00,
2013-07-20 01:56:00,68.5,68.2,29.12,NE,45,0.0,2.0,99,0.00,,,0.00,meteohub,2013-07-20 11:56:00,
2013-07-20 02:02:00,68.4,68.0,29.12,NE,45,0.0,2.0,99,0.00,,,0.00,meteohub,2013-07-20 12:02:00,
2013-07-20 02:07:00,68.2,67.8,29.12,NE,45,0.0,2.0,99,0.00,,,0.00,meteohub,2013-07-20 12:07:00,
2013-07-20 02:12:00,68.0,67.6,29.12,NE,45,0.0,0.0,99,0.00,,,0.00,meteohub,2013-07-20 12:12:00,
2013-07-20 02:17:00,67.8,67.5,29.12,NE,45,0.0,0.0,99,0.00,,,0.00,meteohub,2013-07-20 12:17:00,
2013-07-20 02:22:00,67.6,67.3,29.12,NE,45,0.0,0.0,99,0.00,,,0.00,meteohub,2013-07-20 12:22:00,
2013-07-20 02:27:00,67.5,67.1,29.12,East,90,0.0,1.0,99,0.00,,,0.00,meteohub,2013-07-20 12:27:00,
2013-07-20 02:32:00,67.5,67.1,29.12,East,90,0.0,1.0,99,0.00,,,0.00,meteohub,2013-07-20 12:32:00,
2013-07-20 02:37:00,67.3,66.9,29.12,East,90,1.0,2.0,99,0.00,,,0.00,meteohub,2013-07-20 12:37:00,
2013-07-20 02:42:00,67.1,66.7,29.12,East,90,0.0,2.0,99,0.00,,,0.00,meteohub,2013-07-20 12:42:00,
2013-07-20 02:47:00,67.1,66.7,29.12,NE,45,2.0,2.0,99,0.00,,,0.00,meteohub,2013-07-20 12:47:00,
2013-07-20 02:52:00,67.1,66.7,29.12,NE,45,2.0,2.0,99,0.00,,,0.00,meteohub,2013-07-20 12:52:00,
2013-07-20 02:57:00,67.1,66.7,29.11,NE,45,0.0,2.0,99,0.00,,,0.00,meteohub,2013-07-20 12:57:00,
2013-07-20 03:02:00,67.1,66.7,29.10,NE,45,0.0,2.0,99,0.00,,,0.00,meteohub,2013-07-20 13:02:00,
2013-07-20 03:07:00,67.1,66.7,29.11,NE,45,1.0,2.0,99,0.00,,,0.00,meteohub,2013-07-20 13:07:00,
2013-07-20 03:12:00,66.9,66.6,29.10,NE,45,0.0,3.0,99,0.00,,,0.00,meteohub,2013-07-20 13:12:00,
2013-07-20 03:17:00,66.9,66.6,29.11,NE,45,0.0,3.0,99,0.00,,,0.00,meteohub,2013-07-20 13:17:00,
2013-07-20 03:22:00,66.7,66.4,29.10,NE,45,0.0,3.0,99,0.00,,,0.00,meteohub,2013-07-20 13:22:00,
2013-07-20 03:27:00,66.7,66.4,29.11,NE,45,2.0,2.0,99,0.00,,,0.00,meteohub,2013-07-20 13:27:00,
2013-07-20 03:32:00,66.7,66.4,29.10,NE,45,0.0,2.0,99,0.00,,,0.00,meteohub,2013-07-20 13:32:00,
2013-07-20 03:37:00,66.6,66.2,29.10,NE,45,2.0,2.0,99,0.00,,,0.00,meteohub,2013-07-20 13:37:00,
2013-07-20 03:42:00,66.4,66.0,29.10,NE,45,1.0,2.0,99,0.00,,,0.00,meteohub,2013-07-20 13:42:00,
2013-07-20 03:47:00,66.4,66.0,29.10,NE,45,0.0,2.0,99,0.00,,,0.00,meteohub,2013-07-20 13:47:00,
2013-07-20 03:52:00,66.2,65.8,29.11,NE,45,1.0,2.0,99,0.00,,,0.00,meteohub,2013-07-20 13:52:00,
2013-07-20 03:57:00,66.2,65.8,29.10,NE,45,2.0,2.0,99,0.00,,,0.00,meteohub,2013-07-20 13:57:00,
2013-07-20 04:02:00,66.2,65.8,29.10,NE,45,2.0,2.0,99,0.00,,,0.00,meteohub,2013-07-20 14:02:00,
2013-07-20 04:07:00,66.0,65.7,29.11,NE,45,0.0,2.0,99,0.00,,,0.00,meteohub,2013-07-20 14:07:00,
2013-07-20 04:12:00,66.0,65.7,29.11,NE,45,0.0,2.0,99,0.00,,,0.00,meteohub,2013-07-20 14:12:00,
2013-07-20 04:17:00,66.2,65.8,29.11,NE,45,0.0,2.0,99,0.00,,,0.00,meteohub,2013-07-20 14:17:00,
2013-07-20 04:22:00,66.2,65.8,29.11,NE,45,0.0,2.0,99,0.00,,,0.00,meteohub,2013-07-20 14:22:00,
2013-07-20 04:27:00,66.4,66.0,29.11,NE,45,0.0,0.0,99,0.00,,,0.00,meteohub,2013-07-20 14:27:00,
2013-07-20 04:32:00,66.6,66.2,29.11,NE,45,2.0,2.0,99,0.00,,,0.00,meteohub,2013-07-20 14:32:00,
2013-07-20 04:37:00,66.7,66.4,29.11,NE,45,0.0,2.0,99,0.00,,,0.00,meteohub,2013-07-20 14:37:00,
2013-07-20 04:42:00,66.9,66.6,29.11,NE,45,0.0,2.0,99,0.00,,,0.00,meteohub,2013-07-20 14:42:00,
2013-07-20 04:47:00,67.1,66.7,29.10,NE,45,0.0,2.0,99,0.00,,,0.00,meteohub,2013-07-20 14:47:00,
2013-07-20 04:52:00,67.3,66.9,29.11,East,90,0.0,2.0,99,0.00,,,0.00,meteohub,2013-07-20 14:52:00,
2013-07-20 04:57:00,67.5,67.1,29.11,East,90,1.0,2.0,99,0.00,,,0.00,meteohub,2013-07-20 14:57:00,
2013-07-20 05:02:00,67.5,67.1,29.11,North,0,2.0,2.0,99,0.00,,,0.00,meteohub,2013-07-20 15:02:00,
2013-07-20 05:06:00,67.5,67.1,29.11,NE,45,2.0,2.0,99,0.00,,,0.00,meteohub,2013-07-20 15:06:00,
2013-07-20 05:12:00,67.5,67.1,29.12,NE,45,0.0,2.0,99,0.00,,,0.00,meteohub,2013-07-20 15:12:00,
2013-07-20 05:17:00,67.5,67.1,29.12,NE,45,0.0,2.0,99,0.00,,,0.00,meteohub,2013-07-20 15:17:00,
2013-07-20 05:22:00,67.3,66.9,29.12,NE,45,0.0,2.0,99,0.00,,,0.00,meteohub,2013-07-20 15:22:00,
2013-07-20 05:27:00,67.3,66.9,29.11,NE,45,0.0,0.0,99,0.00,,,0.00,meteohub,2013-07-20 15:27:00,
2013-07-20 05:32:00,67.1,66.7,29.12,NE,45,0.0,0.0,99,0.00,,,0.00,meteohub,2013-07-20 15:32:00,
2013-07-20 05:37:00,67.1,66.7,29.12,NE,45,0.0,0.0,99,0.00,,,0.00,meteohub,2013-07-20 15:37:00,
2013-07-20 05:42:00,66.9,66.6,29.12,East,90,1.0,0.0,99,0.00,,,0.00,meteohub,2013-07-20 15:42:00,
2013-07-20 05:47:00,66.7,66.4,29.12,East,90,0.0,3.0,99,0.00,,,0.00,meteohub,2013-07-20 15:47:00,
2013-07-20 05:52:00,66.6,66.2,29.13,East,90,0.0,3.0,99,0.00,,,0.00,meteohub,2013-07-20 15:52:00,
2013-07-20 05:57:00,66.6,66.2,29.13,East,90,0.0,3.0,99,0.00,,,0.00,meteohub,2013-07-20 15:57:00,
2013-07-20 06:02:00,66.6,66.2,29.13,East,90,0.0,0.0,99,0.00,,,0.00,meteohub,2013-07-20 16:02:00,
2013-07-20 06:07:00,66.7,66.4,29.13,East,90,0.0,0.0,99,0.00,,,0.00,meteohub,2013-07-20 16:07:00,
2013-07-20 06:12:00,66.7,66.4,29.13,East,90,0.0,0.0,99,0.00,,,0.00,meteohub,2013-07-20 16:12:00,
2013-07-20 06:17:00,67.3,66.9,29.13,East,90,0.0,2.0,99,0.00,,,0.00,meteohub,2013-07-20 16:17:00,
2013-07-20 06:22:00,67.6,67.3,29.14,East,90,2.0,2.0,99,0.00,,,0.00,meteohub,2013-07-20 16:22:00,
2013-07-20 06:27:00,68.0,67.6,29.14,East,90,1.0,2.0,99,0.00,,,0.00,meteohub,2013-07-20 16:27:00,
2013-07-20 06:32:00,68.4,68.0,29.14,East,90,0.0,2.0,99,0.00,,,0.00,meteohub,2013-07-20 16:32:00,
2013-07-20 06:37:00,68.4,68.0,29.15,East,90,2.0,2.0,99,0.00,,,0.00,meteohub,2013-07-20 16:37:00,
2013-07-20 06:42:00,68.0,67.6,29.15,East,90,0.0,2.0,99,0.00,,,0.00,meteohub,2013-07-20 16:42:00,
2013-07-20 06:47:00,67.8,67.5,29.15,East,90,2.0,3.0,99,0.00,,,0.00,meteohub,2013-07-20 16:47:00,
2013-07-20 06:52:00,67.6,67.3,29.15,East,90,0.0,3.0,99,0.01,,,0.01,meteohub,2013-07-20 16:52:00,
2013-07-20 06:57:00,67.6,67.3,29.15,NE,45,2.0,3.0,99,0.01,,,0.01,meteohub,2013-07-20 16:57:00,
2013-07-20 07:02:00,67.6,67.3,29.16,East,90,3.0,3.0,99,0.02,,,0.02,meteohub,2013-07-20 17:02:00,
2013-07-20 07:07:00,67.8,67.5,29.16,SE,135,3.0,3.0,99,0.06,,,0.06,meteohub,2013-07-20 17:07:00,
2013-07-20 07:12:00,68.0,67.6,29.16,NE,45,1.0,4.0,99,0.07,,,0.07,meteohub,2013-07-20 17:12:00,
2013-07-20 07:17:00,68.0,67.6,29.16,East,90,2.0,4.0,99,0.09,,,0.09,meteohub,2013-07-20 17:17:00,
2013-07-20 07:22:00,68.2,67.8,29.16,East,90,1.0,4.0,99,0.15,,,0.12,meteohub,2013-07-20 17:22:00,
2013-07-20 07:27:00,68.2,67.8,29.16,NE,45,1.0,4.0,99,0.20,,,0.20,meteohub,2013-07-20 17:27:00,
2013-07-20 07:32:00,68.2,67.8,29.16,NE,45,1.0,3.0,99,0.22,,,0.22,meteohub,2013-07-20 17:32:00,
2013-07-20 07:37:00,68.0,67.6,29.16,NE,45,1.0,2.0,99,0.24,,,0.24,meteohub,2013-07-20 17:37:00,
2013-07-20 07:42:00,68.0,67.6,29.16,East,90,1.0,2.0,99,0.25,,,0.25,meteohub,2013-07-20 17:42:00,
2013-07-20 07:47:00,67.8,67.5,29.16,East,90,1.0,2.0,99,0.31,,,0.32,meteohub,2013-07-20 17:47:00,
2013-07-20 07:52:00,67.8,67.5,29.16,East,90,2.0,2.0,99,0.31,,,0.32,meteohub,2013-07-20 17:52:00,
2013-07-20 07:57:00,68.0,67.6,29.16,East,90,2.0,2.0,99,0.32,,,0.33,meteohub,2013-07-20 17:57:00,
2013-07-20 08:02:00,68.0,67.6,29.16,NE,45,1.0,2.0,99,0.31,,,0.34,meteohub,2013-07-20 18:02:00,
2013-07-20 08:07:00,68.0,67.6,29.16,NE,45,1.0,2.0,99,0.28,,,0.34,meteohub,2013-07-20 18:07:00,
2013-07-20 08:12:00,68.4,68.0,29.16,NE,45,1.0,2.0,99,0.26,,,0.34,meteohub,2013-07-20 18:12:00,
2013-07-20 08:17:00,68.5,68.2,29.16,NE,45,0.0,2.0,99,0.24,,,0.34,meteohub,2013-07-20 18:17:00,
2013-07-20 08:19:00,68.9,68.5,29.16,NE,45,0.0,2.0,99,0.24,,,0.34,meteohub,2013-07-20 18:19:00,
2013-07-20 08:22:00,69.1,68.7,29.16,NE,45,1.0,1.0,99,0.19,,,0.34,meteohub,2013-07-20 18:22:00,
2013-07-20 08:27:00,69.4,69.1,29.16,NE,45,0.0,1.0,99,0.13,,,0.34,meteohub,2013-07-20 18:27:00,
2013-07-20 08:32:00,70.0,69.6,29.16,NE,45,2.0,2.0,99,0.11,,,0.34,meteohub,2013-07-20 18:32:00,
2013-07-20 08:37:00,70.7,70.3,29.16,NE,45,0.0,2.0,99,0.11,,,0.34,meteohub,2013-07-20 18:37:00,
2013-07-20 08:42:00,71.1,70.7,29.15,NW,315,0.0,2.0,99,0.07,,,0.34,meteohub,2013-07-20 18:42:00,
2013-07-20 08:47:00,71.6,71.2,29.16,NW,315,0.0,2.0,99,0.02,,,0.34,meteohub,2013-07-20 18:47:00,
2013-07-20 08:52:00,72.3,72.0,29.16,NW,315,0.0,1.0,99,0.01,,,0.34,meteohub,2013-07-20 18:52:00,
2013-07-20 08:57:00,72.9,72.5,29.16,NW,315,0.0,2.0,99,0.01,,,0.34,meteohub,2013-07-20 18:57:00,
2013-07-20 09:02:00,72.7,72.3,29.15,NW,315,0.0,2.0,99,0.00,,,0.34,meteohub,2013-07-20 19:02:00,
2013-07-20 09:07:00,72.5,72.1,29.15,NW,315,0.0,2.0,99,0.00,,,0.34,meteohub,2013-07-20 19:07:00,
2013-07-20 09:12:00,72.5,72.1,29.16,NW,315,0.0,0.0,99,0.00,,,0.34,meteohub,2013-07-20 19:12:00,
2013-07-20 09:17:00,73.0,72.7,29.16,NW,315,0.0,1.0,99,0.00,,,0.34,meteohub,2013-07-20 19:17:00,
2013-07-20 09:22:00,73.4,73.0,29.16,NW,315,2.0,2.0,99,0.00,,,0.34,meteohub,2013-07-20 19:22:00,
2013-07-20 09:28:00,73.6,73.2,29.15,NW,315,0.0,2.0,99,0.00,,,0.34,meteohub,2013-07-20 19:28:00,
2013-07-20 09:33:00,73.9,73.6,29.16,NW,315,0.0,2.0,99,0.00,,,0.34,meteohub,2013-07-20 19:33:00,
2013-07-20 09:38:00,75.0,74.7,29.16,South,180,0.0,2.0,99,0.00,,,0.34,meteohub,2013-07-20 19:38:00,
2013-07-20 09:44:00,75.7,75.4,29.15,South,180,0.0,2.0,99,0.00,,,0.34,meteohub,2013-07-20 19:44:00,
2013-07-20 09:49:00,77.2,75.4,29.14,West,270,3.0,3.0,94,0.00,,,0.34,meteohub,2013-07-20 19:49:00,
2013-07-20 09:54:00,77.5,75.4,29.15,SW,225,2.0,4.0,93,0.00,,,0.34,meteohub,2013-07-20 19:54:00,
2013-07-20 09:59:00,77.9,75.7,29.15,West,270,2.0,4.0,93,0.00,,,0.34,meteohub,2013-07-20 19:59:00,
2013-07-20 10:04:00,77.5,75.4,29.14,West,270,0.0,4.0,93,0.00,,,0.34,meteohub,2013-07-20 20:04:00,
2013-07-20 10:09:00,78.6,74.1,29.14,NW,315,4.0,4.0,86,0.00,,,0.34,meteohub,2013-07-20 20:09:00,
2013-07-20 10:14:00,79.2,74.7,29.14,West,270,0.0,3.0,86,0.00,,,0.34,meteohub,2013-07-20 20:14:00,
2013-07-20 10:19:00,79.0,74.1,29.14,West,270,0.0,4.0,85,0.00,,,0.34,meteohub,2013-07-20 20:19:00,
2013-07-20 10:25:00,78.3,73.4,29.14,North,0,2.0,4.0,85,0.00,,,0.34,meteohub,2013-07-20 20:25:00,
2013-07-20 10:30:00,77.9,73.0,29.14,SW,225,2.0,5.0,85,0.00,,,0.34,meteohub,2013-07-20 20:30:00,
2013-07-20 10:35:00,77.4,72.9,29.14,West,270,8.0,8.0,86,0.00,,,0.34,meteohub,2013-07-20 20:35:00,
2013-07-20 10:40:00,76.6,72.5,29.14,West,270,3.0,5.0,87,0.00,,,0.34,meteohub,2013-07-20 20:40:00,
2013-07-20 10:46:00,76.3,72.5,29.14,NE,45,0.0,8.0,88,0.00,,,0.34,meteohub,2013-07-20 20:46:00,
2013-07-20 10:51:00,76.1,72.3,29.14,West,270,2.0,8.0,88,0.00,,,0.34,meteohub,2013-07-20 20:51:00,
2013-07-20 10:56:00,75.9,72.9,29.14,NW,315,2.0,3.0,90,0.00,,,0.34,meteohub,2013-07-20 20:56:00,
2013-07-20 11:01:00,77.2,74.3,29.13,West,270,2.0,3.0,91,0.00,,,0.34,meteohub,2013-07-20 21:01:00,
2013-07-20 11:06:00,78.3,73.8,29.13,NE,45,3.0,5.0,86,0.00,,,0.34,meteohub,2013-07-20 21:06:00,
2013-07-20 11:11:00,79.7,75.2,29.13,West,270,4.0,5.0,86,0.00,,,0.34,meteohub,2013-07-20 21:11:00,
2013-07-20 11:16:00,78.6,73.0,29.13,NW,315,3.0,6.0,83,0.00,,,0.34,meteohub,2013-07-20 21:16:00,
2013-07-20 11:21:00,77.2,72.7,29.13,West,270,5.0,6.0,86,0.00,,,0.34,meteohub,2013-07-20 21:21:00,
2013-07-20 11:26:00,75.9,72.5,29.13,West,270,3.0,6.0,89,0.00,,,0.34,meteohub,2013-07-20 21:26:00,
2013-07-20 11:31:00,75.7,72.9,29.13,West,270,4.0,6.0,91,0.00,,,0.34,meteohub,2013-07-20 21:31:00,
2013-07-20 11:36:00,75.2,72.7,29.13,West,270,4.0,6.0,92,0.00,,,0.34,meteohub,2013-07-20 21:36:00,
2013-07-20 11:42:00,75.0,72.5,29.13,NW,315,2.0,5.0,92,0.00,,,0.34,meteohub,2013-07-20 21:42:00,
2013-07-20 11:47:00,75.0,72.9,29.13,NW,315,3.0,4.0,93,0.00,,,0.34,meteohub,2013-07-20 21:47:00,
2013-07-20 11:52:00,75.6,73.0,29.13,NW,315,3.0,4.0,92,0.00,,,0.34,meteohub,2013-07-20 21:52:00,
2013-07-20 11:57:00,76.3,73.8,29.12,WNW,293,2.0,4.0,92,0.00,,,0.34,meteohub,2013-07-20 21:57:00,
2013-07-20 12:02:00,77.0,73.8,29.12,West,270,7.0,7.0,90,0.00,,,0.34,meteohub,2013-07-20 22:02:00,
2013-07-20 12:07:00,77.0,73.6,29.12,West,270,4.0,7.0,89,0.00,,,0.34,meteohub,2013-07-20 22:07:00,
2013-07-20 12:12:00,77.5,74.1,29.12,West,270,3.0,7.0,89,0.00,,,0.34,meteohub,2013-07-20 22:12:00,
2013-07-20 12:17:00,77.0,72.9,29.12,West,270,2.0,7.0,87,0.00,,,0.34,meteohub,2013-07-20 22:17:00,
2013-07-20 12:22:00,76.3,72.9,29.12,NW,315,5.0,6.0,89,0.00,,,0.34,meteohub,2013-07-20 22:22:00,
2013-07-20 12:27:00,75.9,73.0,29.11,West,270,3.0,5.0,91,0.00,,,0.34,meteohub,2013-07-20 22:27:00,
2013-07-20 12:32:00,75.9,73.4,29.12,NW,315,2.0,5.0,92,0.00,,,0.34,meteohub,2013-07-20 22:32:00,
2013-07-20 12:37:00,76.3,74.1,29.11,West,270,4.0,5.0,93,0.00,,,0.34,meteohub,2013-07-20 22:37:00,
2013-07-20 12:42:00,76.3,73.8,29.11,West,270,4.0,4.0,92,0.00,,,0.34,meteohub,2013-07-20 22:42:00,
2013-07-20 12:47:00,76.6,74.8,29.11,West,270,4.0,6.0,94,0.00,,,0.34,meteohub,2013-07-20 22:47:00,
2013-07-20 12:52:00,76.5,73.9,29.11,West,270,5.0,6.0,92,0.00,,,0.34,meteohub,2013-07-20 22:52:00,
2013-07-20 12:57:00,76.6,74.1,29.11,West,270,2.0,6.0,92,0.00,,,0.34,meteohub,2013-07-20 22:57:00,
2013-07-20 13:02:00,77.2,73.9,29.11,NW,315,5.0,6.0,90,0.00,,,0.34,meteohub,2013-07-20 23:02:00,
2013-07-20 13:07:00,77.2,73.9,29.10,West,270,4.0,6.0,90,0.00,,,0.34,meteohub,2013-07-20 23:07:00,
2013-07-20 13:12:00,77.0,73.2,29.10,West,270,4.0,6.0,88,0.00,,,0.34,meteohub,2013-07-20 23:12:00,
2013-07-20 13:17:00,76.5,72.7,29.10,West,270,2.0,6.0,88,0.00,,,0.34,meteohub,2013-07-20 23:17:00,
2013-07-20 13:22:00,75.9,72.9,29.10,West,270,4.0,5.0,90,0.00,,,0.34,meteohub,2013-07-20 23:22:00,
2013-07-20 13:27:00,75.9,73.0,29.10,West,270,2.0,5.0,91,0.00,,,0.34,meteohub,2013-07-20 23:27:00,
2013-07-20 13:32:00,75.9,72.5,29.10,NW,315,4.0,5.0,89,0.00,,,0.34,meteohub,2013-07-20 23:32:00,
2013-07-20 13:37:00,75.7,72.7,29.09,NW,315,2.0,6.0,90,0.00,,,0.34,meteohub,2013-07-20 23:37:00,
2013-07-20 13:43:00,76.1,72.7,29.09,West,270,3.0,6.0,89,0.00,,,0.34,meteohub,2013-07-20 23:43:00,
2013-07-20 13:48:00,75.7,72.0,29.09,West,270,3.0,6.0,88,0.00,,,0.34,meteohub,2013-07-20 23:48:00,
2013-07-20 13:53:00,75.6,71.8,29.09,West,270,4.0,4.0,88,0.00,,,0.34,meteohub,2013-07-20 23:53:00,
2013-07-20 13:58:00,76.1,72.7,29.09,West,270,2.0,4.0,89,0.00,,,0.34,meteohub,2013-07-20 23:58:00,
2013-07-20 14:03:00,76.3,72.5,29.09,NW,315,4.0,4.0,88,0.00,,,0.34,meteohub,2013-07-21 00:03:00,
2013-07-20 14:08:00,75.9,72.5,29.09,NW,315,5.0,5.0,89,0.00,,,0.34,meteohub,2013-07-21 00:08:00,
2013-07-20 14:14:00,75.4,72.3,29.09,West,270,2.0,5.0,90,0.00,,,0.34,meteohub,2013-07-21 00:14:00,
2013-07-20 14:19:00,74.7,72.5,29.09,West,270,2.0,5.0,93,0.00,,,0.34,meteohub,2013-07-21 00:19:00,
2013-07-20 14:24:00,74.3,72.5,29.09,NW,315,2.0,6.0,94,0.00,,,0.34,meteohub,2013-07-21 00:24:00,
2013-07-20 14:29:00,73.9,73.6,29.09,West,270,5.0,6.0,99,0.00,,,0.34,meteohub,2013-07-21 00:29:00,
2013-07-20 14:34:00,73.2,72.9,29.09,West,270,3.0,6.0,99,0.00,,,0.34,meteohub,2013-07-21 00:34:00,
2013-07-20 14:39:00,72.7,72.3,29.09,West,270,4.0,6.0,99,0.00,,,0.34,meteohub,2013-07-21 00:39:00,
2013-07-20 14:44:00,72.1,71.8,29.09,NW,315,2.0,6.0,99,0.01,,,0.35,meteohub,2013-07-21 00:44:00,
2013-07-20 14:49:00,71.4,71.1,29.09,NW,315,3.0,6.0,99,0.07,,,0.41,meteohub,2013-07-21 00:49:00,
2013-07-20 14:54:00,71.2,70.9,29.09,West,270,3.0,5.0,99,0.15,,,0.50,meteohub,2013-07-21 00:54:00,
2013-07-20 15:00:00,71.2,70.9,29.09,NW,315,1.0,4.0,99,0.21,,,0.56,meteohub,2013-07-21 01:00:00,
2013-07-20 15:05:00,70.7,70.3,29.09,West,270,2.0,4.0,99,0.31,,,0.65,meteohub,2013-07-21 01:05:00,
2013-07-20 15:10:00,70.0,69.6,29.09,West,270,0.0,4.0,99,0.37,,,0.71,meteohub,2013-07-21 01:10:00,
2013-07-20 15:15:00,69.6,69.3,29.08,North,0,1.0,2.0,99,0.39,,,0.73,meteohub,2013-07-21 01:15:00,
2013-07-20 15:20:00,69.4,69.1,29.08,NW,315,2.0,2.0,99,0.40,,,0.74,meteohub,2013-07-21 01:20:00,
2013-07-20 15:25:00,69.3,68.9,29.09,NE,45,1.0,4.0,99,0.41,,,0.76,meteohub,2013-07-21 01:25:00,
2013-07-20 15:30:00,69.3,68.9,29.08,East,90,4.0,4.0,99,0.45,,,0.80,meteohub,2013-07-21 01:30:00,
2013-07-20 15:35:00,68.9,68.5,29.09,East,90,2.0,4.0,99,0.46,,,0.83,meteohub,2013-07-21 01:35:00,
2013-07-20 15:40:00,68.9,68.5,29.09,East,90,0.0,4.0,99,0.47,,,0.83,meteohub,2013-07-21 01:40:00,
2013-07-20 15:45:00,68.9,68.5,29.09,East,90,0.0,4.0,99,0.47,,,0.86,meteohub,2013-07-21 01:45:00,
2013-07-20 15:50:00,68.9,68.5,29.08,NE,45,0.0,2.0,99,0.37,,,0.86,meteohub,2013-07-21 01:50:00,
2013-07-20 15:55:00,68.9,68.5,29.08,NE,45,0.0,2.0,99,0.37,,,0.86,meteohub,2013-07-21 01:55:00,
2013-07-20 16:00:00,69.1,68.7,29.08,NE,45,0.0,2.0,99,0.30,,,0.87,meteohub,2013-07-21 02:00:00,
2013-07-20 16:06:00,69.3,68.9,29.08,West,270,2.0,2.0,99,0.15,,,0.87,meteohub,2013-07-21 02:06:00,
2013-07-20 16:11:00,69.1,68.7,29.08,NW,315,2.0,2.0,99,0.15,,,0.89,meteohub,2013-07-21 02:11:00,
2013-07-20 16:16:00,68.9,68.5,29.08,West,270,0.0,2.0,99,0.15,,,0.91,meteohub,2013-07-21 02:16:00,
2013-07-20 16:21:00,68.9,68.5,29.08,West,270,1.0,2.0,99,0.19,,,0.94,meteohub,2013-07-21 02:21:00,
2013-07-20 16:26:00,68.7,68.4,29.08,North,0,2.0,2.0,99,0.18,,,0.97,meteohub,2013-07-21 02:26:00,
2013-07-20 16:31:00,68.5,68.2,29.08,NE,45,1.0,2.0,99,0.15,,,0.97,meteohub,2013-07-21 02:31:00,
2013-07-20 16:36:00,68.4,68.0,29.08,NE,45,0.0,2.0,99,0.15,,,0.98,meteohub,2013-07-21 02:36:00,
2013-07-20 16:41:00,68.2,67.8,29.08,NE,45,2.0,3.0,99,0.14,,,0.98,meteohub,2013-07-21 02:41:00,
2013-07-20 16:47:00,68.0,67.6,29.08,NE,45,0.0,3.0,99,0.13,,,0.99,meteohub,2013-07-21 02:47:00,
2013-07-20 16:52:00,67.8,67.5,29.08,NE,45,2.0,2.0,99,0.13,,,0.99,meteohub,2013-07-21 02:52:00,
2013-07-20 16:57:00,67.6,67.3,29.08,North,0,0.0,2.0,99,0.12,,,0.99,meteohub,2013-07-21 02:57:00,
2013-07-20 17:02:00,67.6,67.3,29.08,North,0,2.0,2.0,99,0.12,,,0.99,meteohub,2013-07-21 03:02:00,
2013-07-20 17:07:00,67.5,67.1,29.08,NE,45,0.0,2.0,99,0.12,,,0.99,meteohub,2013-07-21 03:07:00,
2013-07-20 17:12:00,67.3,66.9,29.08,NE,45,1.0,2.0,99,0.09,,,0.99,meteohub,2013-07-21 03:12:00,
2013-07-20 17:17:00,67.1,66.7,29.08,NE,45,0.0,2.0,99,0.06,,,0.99,meteohub,2013-07-21 03:17:00,
2013-07-20 17:22:00,67.3,66.9,29.08,NE,45,0.0,1.0,99,0.05,,,1.00,meteohub,2013-07-21 03:22:00,
2013-07-20 17:27:00,67.3,66.9,29.08,NE,45,0.0,2.0,99,0.04,,,1.00,meteohub,2013-07-21 03:27:00,
2013-07-20 17:32:00,67.6,67.3,29.08,NE,45,0.0,2.0,99,0.02,,,1.00,meteohub,2013-07-21 03:32:00,
2013-07-20 17:37:00,68.0,67.6,29.08,NE,45,0.0,1.0,99,0.02,,,1.00,meteohub,2013-07-21 03:37:00,
2013-07-20 17:42:00,68.0,67.6,29.08,NE,45,2.0,2.0,99,0.01,,,1.00,meteohub,2013-07-21 03:42:00,
2013-07-20 17:47:00,68.0,67.6,29.08,NE,45,0.0,2.0,99,0.01,,,1.00,meteohub,2013-07-21 03:47:00,
2013-07-20 17:52:00,68.0,67.6,29.08,East,90,2.0,2.0,99,0.01,,,1.00,meteohub,2013-07-21 03:52:00,
2013-07-20 17:57:00,68.0,67.6,29.08,NE,45,1.0,4.0,99,0.01,,,1.00,meteohub,2013-07-21 03:57:00,
2013-07-20 18:01:00,68.2,67.8,29.08,SE,135,0.0,4.0,99,0.01,,,1.00,meteohub,2013-07-21 04:01:00,
2013-07-20 18:02:00,68.0,67.6,29.08,SE,135,0.0,4.0,99,0.01,,,1.00,meteohub,2013-07-21 04:02:00,
2013-07-20 18:07:00,68.2,67.8,29.08,East,90,5.0,5.0,99,0.01,,,1.00,meteohub,2013-07-21 04:07:00,
2013-07-20 18:12:00,68.2,67.8,29.08,East,90,2.0,5.0,99,0.01,,,1.00,meteohub,2013-07-21 04:12:00,
2013-07-20 18:17:00,68.2,67.8,29.08,NE,45,0.0,5.0,99,0.01,,,1.00,meteohub,2013-07-21 04:17:00,
2013-07-20 18:22:00,68.2,67.8,29.08,East,90,0.0,5.0,99,0.00,,,1.00,meteohub,2013-07-21 04:22:00,
2013-07-20 18:27:00,68.2,67.8,29.08,NE,45,1.0,4.0,99,0.00,,,1.00,meteohub,2013-07-21 04:27:00,
2013-07-20 18:32:00,68.0,67.6,29.08,NE,45,0.0,4.0,99,0.00,,,1.00,meteohub,2013-07-21 04:32:00,
2013-07-20 18:37:00,68.0,67.6,29.08,NE,45,0.0,3.0,99,0.00,,,1.00,meteohub,2013-07-21 04:37:00,
2013-07-20 18:42:00,68.0,67.6,29.08,NE,45,0.0,1.0,99,0.00,,,1.00,meteohub,2013-07-21 04:42:00,
2013-07-20 18:47:00,67.8,67.5,29.09,NE,45,0.0,0.0,99,0.00,,,1.00,meteohub,2013-07-21 04:47:00,
2013-07-20 18:52:00,67.6,67.3,29.09,NE,45,0.0,0.0,99,0.00,,,1.00,meteohub,2013-07-21 04:52:00,
2013-07-20 18:57:00,67.5,67.1,29.09,NE,45,0.0,1.0,99,0.00,,,1.00,meteohub,2013-07-21 04:57:00,
2013-07-20 19:02:00,67.3,66.9,29.09,NE,45,0.0,1.0,99,0.00,,,1.00,meteohub,2013-07-21 05:02:00,
2013-07-20 19:07:00,67.1,66.7,29.09,NE,45,0.0,1.0,99,0.00,,,1.00,meteohub,2013-07-21 05:07:00,
2013-07-20 19:12:00,67.1,66.7,29.09,NE,45,0.0,1.0,99,0.00,,,1.00,meteohub,2013-07-21 05:12:00,
2013-07-20 19:17:00,66.9,66.6,29.10,NE,45,0.0,0.0,99,0.00,,,1.00,meteohub,2013-07-21 05:17:00,
2013-07-20 19:22:00,66.9,66.6,29.10,NE,45,0.0,0.0,99,0.00,,,1.00,meteohub,2013-07-21 05:22:00,
2013-07-20 19:28:00,66.9,66.6,29.10,NE,45,0.0,0.0,99,0.00,,,1.00,meteohub,2013-07-21 05:28:00,
2013-07-20 19:33:00,66.9,66.6,29.10,NE,45,0.0,0.0,99,0.00,,,1.00,meteohub,2013-07-21 05:33:00,
2013-07-20 19:38:00,66.9,66.6,29.09,NE,45,0.0,0.0,99,0.00,,,1.00,meteohub,2013-07-21 05:38:00,
2013-07-20 19:43:00,66.9,66.6,29.10,NE,45,0.0,0.0,99,0.00,,,1.00,meteohub,2013-07-21 05:43:00,
2013-07-20 19:48:00,66.9,66.6,29.10,NE,45,0.0,1.0,99,0.00,,,1.00,meteohub,2013-07-21 05:48:00,
2013-07-20 19:53:00,66.9,66.6,29.10,NE,45,0.0,1.0,99,0.00,,,1.00,meteohub,2013-07-21 05:53:00,
2013-07-20 19:58:00,66.9,66.6,29.10,NE,45,0.0,0.0,99,0.00,,,1.00,meteohub,2013-07-21 05:58:00,
2013-07-20 20:03:00,66.7,66.4,29.10,NE,45,0.0,0.0,99,0.00,,,1.00,meteohub,2013-07-21 06:03:00,
2013-07-20 20:08:00,66.7,66.4,29.10,NE,45,0.0,0.0,99,0.00,,,1.00,meteohub,2013-07-21 06:08:00,
2013-07-20 20:13:00,66.6,66.2,29.10,NE,45,0.0,1.0,99,0.00,,,1.00,meteohub,2013-07-21 06:13:00,
2013-07-20 20:18:00,66.6,66.2,29.10,NE,45,0.0,1.0,99,0.00,,,1.00,meteohub,2013-07-21 06:18:00,
2013-07-20 20:23:00,66.4,66.0,29.11,NE,45,0.0,1.0,99,0.00,,,1.00,meteohub,2013-07-21 06:23:00,
2013-07-20 20:28:00,66.2,65.8,29.11,NE,45,0.0,0.0,99,0.00,,,1.00,meteohub,2013-07-21 06:28:00,
2013-07-20 20:33:00,66.0,65.7,29.11,NE,45,0.0,0.0,99,0.00,,,1.00,meteohub,2013-07-21 06:33:00,
2013-07-20 20:38:00,65.8,65.5,29.11,NE,45,0.0,0.0,99,0.00,,,1.00,meteohub,2013-07-21 06:38:00,
2013-07-20 20:43:00,65.8,65.5,29.11,NE,45,0.0,0.0,99,0.00,,,1.00,meteohub,2013-07-21 06:43:00,
2013-07-20 20:48:00,65.8,65.5,29.11,NE,45,0.0,0.0,99,0.00,,,1.00,meteohub,2013-07-21 06:48:00,
2013-07-20 20:53:00,65.7,65.3,29.11,NE,45,0.0,0.0,99,0.00,,,1.00,meteohub,2013-07-21 06:53:00,
2013-07-20 20:58:00,65.7,65.3,29.11,NE,45,1.0,0.0,99,0.00,,,1.00,meteohub,2013-07-21 06:58:00,
2013-07-20 21:03:00,65.7,65.3,29.11,NE,45,2.0,2.0,99,0.00,,,1.00,meteohub,2013-07-21 07:03:00,
2013-07-20 21:08:00,65.7,65.3,29.11,NE,45,1.0,2.0,99,0.00,,,1.00,meteohub,2013-07-21 07:08:00,
2013-07-20 21:13:00,65.7,65.3,29.12,NE,45,0.0,2.0,99,0.00,,,1.00,meteohub,2013-07-21 07:13:00,
2013-07-20 21:18:00,65.7,65.3,29.11,NE,45,2.0,2.0,99,0.00,,,1.00,meteohub,2013-07-21 07:18:00,
2013-07-20 21:23:00,65.7,65.3,29.12,NE,45,0.0,2.0,99,0.00,,,1.00,meteohub,2013-07-21 07:23:00,
2013-07-20 21:28:00,65.5,65.1,29.12,NE,45,0.0,2.0,99,0.00,,,1.00,meteohub,2013-07-21 07:28:00,
2013-07-20 21:33:00,65.5,65.1,29.12,NE,45,0.0,2.0,99,0.00,,,1.00,meteohub,2013-07-21 07:33:00,
2013-07-20 21:38:00,65.5,65.1,29.13,NE,45,0.0,0.0,99,0.00,,,1.00,meteohub,2013-07-21 07:38:00,
2013-07-20 21:43:00,65.5,65.1,29.13,NE,45,0.0,0.0,99,0.00,,,1.00,meteohub,2013-07-21 07:43:00,
2013-07-20 21:48:00,65.5,65.1,29.13,NE,45,0.0,0.0,99,0.00,,,1.00,meteohub,2013-07-21 07:48:00,
2013-07-20 21:53:00,65.7,65.3,29.13,NE,45,0.0,0.0,99,0.00,,,1.00,meteohub,2013-07-21 07:53:00,
2013-07-20 21:58:00,65.7,65.3,29.13,NE,45,1.0,0.0,99,0.00,,,1.00,meteohub,2013-07-21 07:58:00,
2013-07-20 22:04:00,65.7,65.3,29.13,NE,45,0.0,2.0,99,0.00,,,1.00,meteohub,2013-07-21 08:04:00,
2013-07-20 22:09:00,65.7,65.3,29.13,NE,45,2.0,2.0,99,0.00,,,1.00,meteohub,2013-07-21 08:09:00,
2013-07-20 22:14:00,65.8,65.5,29.12,NE,45,0.0,2.0,99,0.00,,,1.00,meteohub,2013-07-21 08:14:00,
2013-07-20 22:19:00,65.8,65.5,29.12,NE,45,1.0,2.0,99,0.00,,,1.00,meteohub,2013-07-21 08:19:00,
2013-07-20 22:24:00,65.8,65.5,29.13,NE,45,0.0,2.0,99,0.00,,,1.00,meteohub,2013-07-21 08:24:00,
2013-07-20 22:29:00,65.8,65.5,29.12,NE,45,0.0,2.0,99,0.00,,,1.00,meteohub,2013-07-21 08:29:00,
2013-07-20 22:34:00,65.8,65.5,29.12,NE,45,1.0,2.0,99,0.00,,,1.00,meteohub,2013-07-21 08:34:00,
2013-07-20 22:39:00,66.0,65.7,29.13,East,90,2.0,2.0,99,0.00,,,1.00,meteohub,2013-07-21 08:39:00,
2013-07-20 22:44:00,66.0,65.7,29.13,East,90,0.0,2.0,99,0.00,,,1.00,meteohub,2013-07-21 08:44:00,
2013-07-20 22:49:00,65.8,65.5,29.13,NE,45,0.0,2.0,99,0.00,,,1.00,meteohub,2013-07-21 08:49:00,
2013-07-20 22:54:00,65.7,65.3,29.13,NE,45,0.0,2.0,99,0.00,,,1.00,meteohub,2013-07-21 08:54:00,
2013-07-20 22:59:00,65.7,65.3,29.13,East,90,0.0,0.0,99,0.00,,,1.00,meteohub,2013-07-21 08:59:00,
2013-07-20 23:04:00,65.5,65.1,29.13,NE,45,0.0,2.0,99,0.00,,,1.00,meteohub,2013-07-21 09:04:00,
2013-07-20 23:09:00,65.5,65.1,29.13,NE,45,2.0,2.0,99,0.00,,,1.00,meteohub,2013-07-21 09:09:00,
2013-07-20 23:14:00,65.5,65.1,29.13,NE,45,2.0,2.0,99,0.00,,,1.00,meteohub,2013-07-21 09:14:00,
2013-07-20 23:19:00,65.7,65.3,29.13,NE,45,0.0,2.0,99,0.00,,,1.00,meteohub,2013-07-21 09:19:00,
2013-07-20 23:24:00,65.7,65.3,29.13,NE,45,0.0,2.0,99,0.00,,,1.00,meteohub,2013-07-21 09:24:00,
2013-07-20 23:29:00,65.7,65.3,29.13,NE,45,0.0,2.0,99,0.00,,,1.00,meteohub,2013-07-21 09:29:00,
2013-07-20 23:34:00,65.7,65.3,29.13,NE,45,1.0,1.0,99,0.00,,,1.00,meteohub,2013-07-21 09:34:00,
2013-07-20 23:39:00,65.7,65.3,29.13,NE,45,1.0,1.0,99,0.00,,,1.00,meteohub,2013-07-21 09:39:00,
2013-07-20 23:44:00,65.8,65.5,29.13,NE,45,1.0,1.0,99,0.00,,,1.00,meteohub,2013-07-21 09:44:00,
2013-07-20 23:49:00,65.8,65.5,29.13,NE,45,0.0,1.0,99,0.00,,,1.00,meteohub,2013-07-21 09:49:00,
2013-07-20 23:54:00,66.0,65.7,29.13,NE,45,1.0,2.0,99,0.00,,,1.00,meteohub,2013-07-21 09:54:00,
2013-07-20 23:59:00,66.0,65.7,29.12,NE,45,2.0,2.0,99,0.00,,,1.00,meteohub,2013-07-21 09:59:00,